createdAt,value
2023-01-23T00:01:25.593Z,13.23
2023-01-23T00:03:54.508Z,8.20
2023-01-23T00:06:22.477Z,4.38
2023-01-23T00:08:50.559Z,6.53
2023-01-23T00:11:24.743Z,8.85
2023-01-23T00:13:53.172Z,3.75
2023-01-23T00:16:22.534Z,11.73
2023-01-23T00:18:50.711Z,18.45
2023-01-23T00:21:22.138Z,14.68
2023-01-23T00:26:20.779Z,4.65
2023-01-23T00:28:48.918Z,14.05
2023-01-23T00:31:18.919Z,13.38
2023-01-23T00:33:46.976Z,24.25
2023-01-23T00:36:15.813Z,19.92
2023-01-23T00:38:43.739Z,7.13
2023-01-23T00:41:11.477Z,5.70
2023-01-23T00:43:39.352Z,19.13
2023-01-23T00:46:07.322Z,2.83
2023-01-23T00:48:35.175Z,13.85
2023-01-23T00:51:03.168Z,2.80
2023-01-23T00:53:30.966Z,14.82
2023-01-23T00:55:58.940Z,1.95
2023-01-23T00:58:27.497Z,9.77
2023-01-23T01:00:55.549Z,9.57
2023-01-23T01:03:25.573Z,4.35
2023-01-23T01:05:53.639Z,10.65
2023-01-23T01:08:21.576Z,9.32
2023-01-23T01:10:49.398Z,16.90
2023-01-23T01:13:21.616Z,11.15
2023-01-23T01:15:53.988Z,5.68
2023-01-23T01:18:22.246Z,10.80
2023-01-23T01:20:50.072Z,2.72
2023-01-23T01:23:17.989Z,8.23
2023-01-23T01:25:45.909Z,14.82
2023-01-23T01:28:13.822Z,14.45
2023-01-23T01:30:42.190Z,4.30
2023-01-23T01:33:11.461Z,6.60
2023-01-23T01:35:42.616Z,8.73
2023-01-23T01:38:10.525Z,9.57
2023-01-23T01:40:38.489Z,15.75
2023-01-23T01:43:10.470Z,11.35
2023-01-23T01:46:16.036Z,12.35
2023-01-23T01:48:47.391Z,10.52
2023-01-23T01:51:38.677Z,10.68
2023-01-23T01:54:14.666Z,8.77
2023-01-23T01:56:53.116Z,8.80
2023-01-23T01:59:21.149Z,6.32
2023-01-23T02:01:50.603Z,4.57
2023-01-23T02:04:18.719Z,11.60
2023-01-23T02:06:47.527Z,12.85
2023-01-23T02:09:24.052Z,12.40
2023-01-23T02:11:52.117Z,11.18
2023-01-23T02:14:20.801Z,8.38
2023-01-23T02:16:52.482Z,11.68
2023-01-23T02:19:27.827Z,11.15
2023-01-23T02:22:00.131Z,10.25
2023-01-23T02:24:33.747Z,16.58
2023-01-23T02:27:01.613Z,14.90
2023-01-23T02:29:46.434Z,5.70
2023-01-23T02:32:15.150Z,10.20
2023-01-23T02:34:44.344Z,9.48
2023-01-23T02:37:12.350Z,8.93
2023-01-23T02:39:40.595Z,19.38
2023-01-23T02:42:10.882Z,23.88
2023-01-23T02:44:46.739Z,9.40
2023-01-23T02:47:17.145Z,14.27
2023-01-23T02:49:45.261Z,14.77
2023-01-23T02:52:13.065Z,11.07
2023-01-23T02:54:41.180Z,19.42
2023-01-23T02:57:10.790Z,15.18
2023-01-23T02:59:57.956Z,10.20
2023-01-23T03:02:27.499Z,10.32
2023-01-23T03:04:55.488Z,28.48
2023-01-23T03:07:23.341Z,15.10
2023-01-23T03:09:51.407Z,12.65
2023-01-23T03:12:19.385Z,12.70
2023-01-23T03:14:48.914Z,23.17
2023-01-23T03:17:16.810Z,19.05
2023-01-23T03:19:44.459Z,17.35
2023-01-23T03:22:12.413Z,14.40
2023-01-23T03:24:40.367Z,17.95
2023-01-23T03:27:08.322Z,12.10
2023-01-23T03:30:01.882Z,14.63
2023-01-23T03:32:31.368Z,10.88
2023-01-23T03:34:59.806Z,24.95
2023-01-23T03:37:27.733Z,12.70
2023-01-23T03:40:15.711Z,19.00
2023-01-23T03:42:43.968Z,11.02
2023-01-23T03:45:14.976Z,22.33
2023-01-23T03:47:43.231Z,18.05
2023-01-23T03:50:12.014Z,11.80
2023-01-23T03:52:40.969Z,16.52
2023-01-23T03:55:09.761Z,16.48
2023-01-23T03:57:39.747Z,16.90
2023-01-23T04:00:33.733Z,13.70
2023-01-23T04:03:05.834Z,13.70
2023-01-23T04:05:33.728Z,20.40
2023-01-23T04:08:02.716Z,21.45
2023-01-23T04:10:31.479Z,12.68
2023-01-23T04:13:04.873Z,12.57
2023-01-23T04:15:33.899Z,15.68
2023-01-23T04:18:05.331Z,10.18
2023-01-23T04:20:33.703Z,7.03
2023-01-23T04:23:01.573Z,16.85
2023-01-23T04:25:30.933Z,18.20
2023-01-23T04:27:58.732Z,20.52
2023-01-23T04:30:26.753Z,9.25
2023-01-23T04:32:55.344Z,16.35
2023-01-23T04:35:23.818Z,22.67
2023-01-23T04:37:53.033Z,18.27
2023-01-23T04:40:21.997Z,10.48
2023-01-23T04:42:54.587Z,9.35
2023-01-23T04:45:35.244Z,6.15
2023-01-23T04:48:21.325Z,14.02
2023-01-23T04:50:50.029Z,9.85
2023-01-23T04:53:18.004Z,2.97
2023-01-23T04:55:50.145Z,5.38
2023-01-23T04:58:19.592Z,20.88
2023-01-23T05:00:47.607Z,9.93
2023-01-23T05:03:17.007Z,15.00
2023-01-23T05:05:48.349Z,9.00
2023-01-23T05:08:16.369Z,21.52
2023-01-23T05:10:50.342Z,13.15
2023-01-23T05:13:20.211Z,5.00
2023-01-23T05:15:48.347Z,18.45
2023-01-23T05:18:17.475Z,20.85
2023-01-23T05:20:46.878Z,16.48
2023-01-23T05:23:14.712Z,15.90
2023-01-23T05:25:50.389Z,8.05
2023-01-23T05:28:18.213Z,4.88
2023-01-23T05:30:51.154Z,19.45
2023-01-23T05:33:42.056Z,18.48
2023-01-23T05:36:09.940Z,15.45
2023-01-23T05:38:37.803Z,15.63
2023-01-23T05:41:05.866Z,19.17
2023-01-23T05:43:39.674Z,20.95
2023-01-23T05:46:07.633Z,21.88
2023-01-23T05:48:50.524Z,19.23
2023-01-23T05:51:21.056Z,14.15
2023-01-23T05:53:49.662Z,21.88
2023-01-23T05:56:18.693Z,16.33
2023-01-23T05:59:10.257Z,21.37
2023-01-23T06:01:49.424Z,24.38
2023-01-23T06:04:36.311Z,19.08
2023-01-23T06:07:18.960Z,20.90
2023-01-23T06:09:48.669Z,24.25
2023-01-23T06:12:16.521Z,16.48
2023-01-23T06:14:44.368Z,19.55
2023-01-23T06:17:12.625Z,9.82
2023-01-23T06:19:40.470Z,18.02
2023-01-23T06:22:09.296Z,19.15
2023-01-23T06:24:55.947Z,13.38
2023-01-23T06:27:24.551Z,10.02
2023-01-23T06:29:53.182Z,4.57
2023-01-23T06:32:21.599Z,19.52
2023-01-23T06:34:50.071Z,7.15
2023-01-23T06:37:17.789Z,21.90
2023-01-23T06:39:46.483Z,13.07
2023-01-23T06:42:16.406Z,18.90
2023-01-23T06:44:48.695Z,10.02
2023-01-23T06:47:17.088Z,28.23
2023-01-23T06:49:48.894Z,12.60
2023-01-23T06:52:16.833Z,19.08
2023-01-23T06:54:47.532Z,39.67
2023-01-23T06:57:15.466Z,11.35
2023-01-23T06:59:44.672Z,20.95
2023-01-23T07:02:15.225Z,31.98
2023-01-23T07:04:48.858Z,29.52
2023-01-23T07:07:16.709Z,33.70
2023-01-23T07:09:46.292Z,22.35
2023-01-23T07:12:18.778Z,18.77
2023-01-23T07:14:47.300Z,10.18
2023-01-23T07:17:20.273Z,27.80
2023-01-23T07:19:48.136Z,22.25
2023-01-23T07:22:20.087Z,27.70
2023-01-23T07:24:48.336Z,20.63
2023-01-23T07:27:16.289Z,20.08
2023-01-23T07:29:44.094Z,37.75
2023-01-23T07:32:11.904Z,26.30
2023-01-23T07:34:39.972Z,8.88
2023-01-23T07:37:07.814Z,36.83
2023-01-23T07:39:35.678Z,24.15
2023-01-23T07:42:03.394Z,44.38
2023-01-23T07:44:31.294Z,14.70
2023-01-23T07:46:59.109Z,38.13
2023-01-23T07:49:26.970Z,18.77
2023-01-23T07:51:55.071Z,15.63
2023-01-23T07:54:22.977Z,27.27
2023-01-23T07:56:51.628Z,13.73
2023-01-23T07:59:19.356Z,11.63
2023-01-23T08:01:47.242Z,14.38
2023-01-23T08:04:15.206Z,15.35
2023-01-23T08:06:43.050Z,14.95
2023-01-23T08:09:10.991Z,15.90
2023-01-23T08:11:38.929Z,14.80
2023-01-23T08:14:06.941Z,31.08
2023-01-23T08:16:34.854Z,11.32
2023-01-23T08:19:02.701Z,11.57
2023-01-23T08:21:30.636Z,27.42
2023-01-23T08:23:58.296Z,23.63
2023-01-23T08:26:26.155Z,21.55
2023-01-23T08:28:54.125Z,7.32
2023-01-23T08:31:22.094Z,27.40
2023-01-23T08:33:50.053Z,13.65
2023-01-23T08:36:17.887Z,13.93
2023-01-23T08:38:45.602Z,10.02
2023-01-23T08:41:13.474Z,13.40
2023-01-23T08:43:44.708Z,11.73
2023-01-23T08:46:12.710Z,14.82
2023-01-23T08:48:40.593Z,24.15
2023-01-23T08:51:10.087Z,31.05
2023-01-23T08:53:37.907Z,21.27
2023-01-23T08:56:16.343Z,25.35
2023-01-23T08:58:44.942Z,14.88
2023-01-23T09:01:14.189Z,27.45
2023-01-23T09:03:41.948Z,16.85
2023-01-23T09:06:11.703Z,11.10
2023-01-23T09:08:39.538Z,26.77
2023-01-23T09:11:08.803Z,17.27
2023-01-23T09:13:36.841Z,28.33
2023-01-23T09:16:05.274Z,15.63
2023-01-23T09:18:33.094Z,13.65
2023-01-23T09:21:01.028Z,28.70
2023-01-23T09:23:28.753Z,32.97
2023-01-23T09:25:56.627Z,29.10
2023-01-23T09:28:24.422Z,25.55
2023-01-23T09:30:52.379Z,28.95
2023-01-23T09:33:25.086Z,35.30
2023-01-23T09:35:53.257Z,13.23
2023-01-23T09:38:21.118Z,13.93
2023-01-23T09:40:58.080Z,20.70
2023-01-23T09:43:32.076Z,30.40
2023-01-23T09:46:02.506Z,19.58
2023-01-23T09:48:44.185Z,21.63
2023-01-23T09:51:34.554Z,27.40
2023-01-23T09:54:26.822Z,23.15
2023-01-23T09:56:55.820Z,23.20
2023-01-23T09:59:32.362Z,33.95
2023-01-23T10:02:00.200Z,23.15
2023-01-23T10:04:27.979Z,14.95
2023-01-23T10:07:10.861Z,33.97
2023-01-23T10:09:50.506Z,18.30
2023-01-23T10:12:41.404Z,39.78
2023-01-23T10:15:30.307Z,34.42
2023-01-23T10:18:25.938Z,16.77
2023-01-23T10:21:03.403Z,34.40
2023-01-23T10:23:55.765Z,13.77
2023-01-23T10:26:26.540Z,6.78
2023-01-23T10:28:57.064Z,25.02
2023-01-23T10:31:29.414Z,39.33
2023-01-23T10:34:06.935Z,26.05
2023-01-23T10:36:54.024Z,22.27
2023-01-23T10:39:32.251Z,18.17
2023-01-23T10:42:02.704Z,18.42
2023-01-23T10:44:31.919Z,21.00
2023-01-23T10:47:03.870Z,38.00
2023-01-23T10:49:39.531Z,23.23
2023-01-23T10:52:10.557Z,26.65
2023-01-23T10:54:46.387Z,33.40
2023-01-23T10:57:14.066Z,36.25
2023-01-23T11:00:04.706Z,36.35
2023-01-23T11:02:41.189Z,42.05
2023-01-23T11:05:50.422Z,50.47
2023-01-23T11:08:31.527Z,46.75
2023-01-23T11:11:17.224Z,35.13
2023-01-23T11:13:46.229Z,36.55
2023-01-23T11:16:24.318Z,38.08
2023-01-23T11:18:52.047Z,34.50
2023-01-23T11:21:39.701Z,35.03
2023-01-23T11:24:38.607Z,42.08
2023-01-23T11:27:19.714Z,23.08
2023-01-23T11:29:53.468Z,42.72
2023-01-23T11:32:22.152Z,22.40
2023-01-23T11:34:57.602Z,36.35
2023-01-23T11:37:31.252Z,20.80
2023-01-23T11:40:02.592Z,36.20
2023-01-23T11:42:30.306Z,36.35
2023-01-23T11:45:01.384Z,43.80
2023-01-23T11:47:35.173Z,30.25
2023-01-23T11:50:18.159Z,7.22
2023-01-23T11:53:03.549Z,20.42
2023-01-23T11:55:55.740Z,8.35
2023-01-23T11:58:49.080Z,43.42
2023-01-23T12:01:49.293Z,49.10
2023-01-23T12:04:46.678Z,38.65
2023-01-23T12:07:24.315Z,34.70
2023-01-23T12:10:18.549Z,35.38
2023-01-23T12:12:59.215Z,16.30
2023-01-23T12:15:44.876Z,12.43
2023-01-23T12:18:32.315Z,11.00
2023-01-23T12:21:12.415Z,8.90
2023-01-23T12:23:52.160Z,19.55
2023-01-23T12:26:22.821Z,23.90
2023-01-23T12:29:22.759Z,34.35
2023-01-23T12:32:09.287Z,17.52
2023-01-23T12:35:09.406Z,31.67
2023-01-23T12:37:59.392Z,15.45
2023-01-23T12:40:39.336Z,8.90
2023-01-23T12:43:32.777Z,24.55
2023-01-23T12:46:12.152Z,29.55
2023-01-23T12:48:47.829Z,29.08
2023-01-23T12:51:19.627Z,4.57
2023-01-23T12:56:18.408Z,22.27
2023-01-23T12:58:55.583Z,27.35
2023-01-23T13:01:53.967Z,9.88
2023-01-23T13:04:28.011Z,12.25
2023-01-23T13:07:04.667Z,20.58
2023-01-23T13:10:03.107Z,21.63
2023-01-23T13:12:31.485Z,9.38
2023-01-23T13:15:22.591Z,8.32
2023-01-23T13:17:59.897Z,24.48
2023-01-23T13:21:18.143Z,13.77
2023-01-23T13:23:46.251Z,24.08
2023-01-23T13:26:16.969Z,22.00
2023-01-23T13:28:48.510Z,22.35
2023-01-23T13:31:47.552Z,23.23
2023-01-23T13:34:18.761Z,24.92
2023-01-23T13:36:47.603Z,16.40
2023-01-23T13:39:18.416Z,20.77
2023-01-23T13:41:47.304Z,16.48
2023-01-23T13:44:35.826Z,18.73
2023-01-23T14:24:53.537Z,19.85
2023-01-23T14:27:29.551Z,31.70
2023-01-23T14:30:05.573Z,37.70
2023-01-23T14:32:35.175Z,29.52
2023-01-23T14:35:03.255Z,34.05
2023-01-23T14:37:31.136Z,32.92
2023-01-23T14:40:01.929Z,33.78
2023-01-23T14:42:35.253Z,23.20
2023-01-23T14:45:03.253Z,7.28
2023-01-23T14:47:37.916Z,22.98
2023-01-23T14:50:23.855Z,33.92
2023-01-23T14:53:01.828Z,32.80
2023-01-23T14:55:30.737Z,31.52
2023-01-23T14:57:59.499Z,30.67
2023-01-23T15:00:27.407Z,31.02
2023-01-23T15:02:56.642Z,38.80
2023-01-23T15:05:28.534Z,45.25
2023-01-23T15:07:59.597Z,55.03
2023-01-23T15:10:31.392Z,33.88
2023-01-23T15:15:27.543Z,38.63
2023-01-23T15:17:55.675Z,37.72
2023-01-23T15:20:41.494Z,27.63
2023-01-23T15:23:31.734Z,37.17
2023-01-23T15:26:18.269Z,40.67
2023-01-23T15:28:52.916Z,33.25
2023-01-23T15:31:41.183Z,32.10
2023-01-23T15:34:15.193Z,22.15
2023-01-23T15:37:08.751Z,37.08
2023-01-23T15:39:58.685Z,37.25
2023-01-23T15:42:31.574Z,55.15
2023-01-23T15:45:01.870Z,30.73
2023-01-23T15:47:32.061Z,58.53
2023-01-23T15:50:03.448Z,42.15
2023-01-23T15:52:45.977Z,33.50
2023-01-23T15:55:13.912Z,47.38
2023-01-23T15:57:43.622Z,55.75
2023-01-23T16:00:21.427Z,39.95
2023-01-23T16:02:56.211Z,44.72
2023-01-23T16:05:32.935Z,22.67
2023-01-23T16:08:03.833Z,53.50
2023-01-23T16:10:34.524Z,46.60
2023-01-23T16:13:02.635Z,48.53
2023-01-23T16:15:34.640Z,46.05
2023-01-23T16:18:04.930Z,43.78
2023-01-23T16:20:41.809Z,24.70
2023-01-23T16:23:20.901Z,35.13
2023-01-23T16:25:49.337Z,29.15
2023-01-23T16:28:22.465Z,33.97
2023-01-23T16:30:51.389Z,17.75
2023-01-23T16:33:19.714Z,32.60
2023-01-23T16:35:48.110Z,49.40
2023-01-23T16:38:26.920Z,45.13
2023-01-23T16:40:55.190Z,47.00
2023-01-23T16:43:23.633Z,45.35
2023-01-23T16:45:54.322Z,48.60
2023-01-23T16:48:27.600Z,34.72
2023-01-23T16:51:15.638Z,49.28
2023-01-23T16:53:44.882Z,41.53
2023-01-23T16:56:25.677Z,33.05
2023-01-23T16:58:53.567Z,19.00
2023-01-23T17:01:22.239Z,17.38
2023-01-23T17:04:10.369Z,36.97
2023-01-23T17:06:38.223Z,33.83
2023-01-23T17:09:05.923Z,56.75
2023-01-23T17:11:35.859Z,11.27
2023-01-23T17:14:06.209Z,52.92
2023-01-23T17:16:34.215Z,30.95
2023-01-23T17:19:03.394Z,34.70
2023-01-23T17:21:33.714Z,47.55
2023-01-23T17:24:01.683Z,33.63
2023-01-23T17:26:29.534Z,37.08
2023-01-23T17:28:57.464Z,63.20
2023-01-23T17:31:27.160Z,55.13
2023-01-23T17:33:56.100Z,44.83
2023-01-23T17:36:25.526Z,36.65
2023-01-23T17:38:58.093Z,52.35
2023-01-23T17:41:25.987Z,59.25
2023-01-23T17:43:53.804Z,41.80
2023-01-23T17:46:23.241Z,62.60
2023-01-23T17:48:51.170Z,37.17
2023-01-23T17:51:19.614Z,45.90
2023-01-23T17:53:47.870Z,66.57
2023-01-23T17:56:16.148Z,75.70
2023-01-23T17:58:43.996Z,45.42
2023-01-23T18:01:22.392Z,41.80
2023-01-23T18:03:51.180Z,46.30
2023-01-23T18:06:19.419Z,25.02
2023-01-23T18:08:47.294Z,58.47
2023-01-23T18:11:24.590Z,36.13
2023-01-23T18:14:21.721Z,26.60
2023-01-23T18:16:50.684Z,39.38
2023-01-23T18:19:20.055Z,46.75
2023-01-23T18:21:49.830Z,38.80
2023-01-23T18:24:25.551Z,33.50
2023-01-23T18:27:01.540Z,42.78
2023-01-23T18:29:54.558Z,15.43
2023-01-23T18:32:28.534Z,32.25
2023-01-23T18:35:00.394Z,47.92
2023-01-23T18:40:21.820Z,30.60
2023-01-23T18:43:08.473Z,35.50
2023-01-23T18:45:36.618Z,56.45
2023-01-23T18:48:13.522Z,57.83
2023-01-23T18:51:13.654Z,11.80
2023-01-23T18:53:56.133Z,58.33
2023-01-23T18:56:39.541Z,53.38
2023-01-23T18:59:35.032Z,48.70
2023-01-23T19:02:15.088Z,36.47
2023-01-23T19:05:12.773Z,49.53
2023-01-23T19:07:40.893Z,47.30
2023-01-23T19:10:15.461Z,38.05
2023-01-23T19:13:06.644Z,47.17
2023-01-23T19:15:41.312Z,59.55
2023-01-23T19:18:11.991Z,43.88
2023-01-23T19:21:18.563Z,57.50
2023-01-23T19:23:56.272Z,48.85
2023-01-23T19:26:25.801Z,53.38
2023-01-23T19:28:54.493Z,58.67
2023-01-23T19:31:30.111Z,60.38
2023-01-23T19:33:59.133Z,46.17
2023-01-23T19:36:27.298Z,58.67
2023-01-23T19:39:01.195Z,59.22
2023-01-23T19:41:47.673Z,45.55
2023-01-23T19:44:19.035Z,53.80
2023-01-23T19:46:47.125Z,41.67
2023-01-23T19:49:14.898Z,38.13
2023-01-23T19:51:42.900Z,47.70
2023-01-23T19:54:12.894Z,70.40
2023-01-23T19:56:41.089Z,59.83
2023-01-23T19:59:08.903Z,68.75
2023-01-23T20:01:50.616Z,65.80
2023-01-23T20:04:22.447Z,66.07
2023-01-23T20:06:52.429Z,64.72
2023-01-23T20:09:20.615Z,57.20
2023-01-23T20:11:48.716Z,56.17
2023-01-23T20:14:16.647Z,65.65
2023-01-23T20:16:44.706Z,73.82
2023-01-23T20:19:15.954Z,64.85
2023-01-23T20:21:43.957Z,58.88
2023-01-23T20:24:12.174Z,69.30
2023-01-23T20:26:40.281Z,65.55
2023-01-23T20:29:11.600Z,73.35
2023-01-23T20:31:39.389Z,65.85
2023-01-23T20:34:07.829Z,77.38
2023-01-23T20:36:35.527Z,70.50
2023-01-23T20:39:04.146Z,73.95
2023-01-23T20:41:31.983Z,72.63
2023-01-23T20:43:59.848Z,65.50
2023-01-23T20:46:27.705Z,87.88
2023-01-23T20:48:55.992Z,89.88
2023-01-23T20:51:23.579Z,94.38
2023-01-23T20:53:51.406Z,98.13
2023-01-23T20:56:20.583Z,93.20
2023-01-23T20:59:08.107Z,93.75
2023-01-23T21:01:55.720Z,85.78
2023-01-23T21:04:27.040Z,83.75
2023-01-23T21:06:54.815Z,81.22
2023-01-23T21:09:23.640Z,86.20
2023-01-23T21:11:52.086Z,87.57
2023-01-23T21:14:20.127Z,100.38
2023-01-23T21:16:48.233Z,99.93
2023-01-23T21:19:16.129Z,93.70
2023-01-23T21:21:43.914Z,97.30
2023-01-23T21:24:11.884Z,107.47
2023-01-23T21:26:39.774Z,99.85
2023-01-23T21:29:07.749Z,110.97
2023-01-23T21:31:37.607Z,100.35
2023-01-23T21:34:08.134Z,90.00
2023-01-23T21:36:36.077Z,107.03
2023-01-23T21:39:04.723Z,107.55
2023-01-23T21:41:32.511Z,103.45
2023-01-23T21:44:00.257Z,93.55
2023-01-23T21:46:28.178Z,54.40
2023-01-23T21:48:56.025Z,99.68
2023-01-23T21:51:25.591Z,91.22
2023-01-23T21:53:53.421Z,100.97
2023-01-23T21:56:23.035Z,104.85
2023-01-23T21:58:50.976Z,101.07
2023-01-23T22:01:33.089Z,107.90
2023-01-23T22:04:02.693Z,100.25
2023-01-23T22:06:30.963Z,45.90
2023-01-23T22:08:58.714Z,64.93
2023-01-23T22:11:26.705Z,82.57
2023-01-23T22:13:55.044Z,82.05
2023-01-23T22:16:31.896Z,80.63
2023-01-23T22:19:08.155Z,83.05
2023-01-23T22:21:35.907Z,80.30
2023-01-23T22:24:03.977Z,72.82
2023-01-23T22:26:31.823Z,76.30
2023-01-23T22:28:59.627Z,78.15
2023-01-23T22:31:27.600Z,69.32
2023-01-23T22:33:55.996Z,70.55
2023-01-23T22:36:23.916Z,78.93
2023-01-23T22:38:52.640Z,80.60
2023-01-23T22:41:20.637Z,76.50
2023-01-23T22:43:55.499Z,80.50
2023-01-23T22:46:23.537Z,73.82
2023-01-23T22:48:51.835Z,73.75
2023-01-23T22:51:24.912Z,81.65
2023-01-23T22:53:53.612Z,77.15
2023-01-23T22:56:21.853Z,77.00
2023-01-23T22:58:50.377Z,72.88
2023-01-23T23:01:18.946Z,73.63
2023-01-23T23:03:47.138Z,78.22
2023-01-23T23:06:15.981Z,62.38
2023-01-23T23:08:47.126Z,73.28
2023-01-23T23:11:22.949Z,73.32
2023-01-23T23:13:50.952Z,70.68
2023-01-23T23:16:24.619Z,75.25
2023-01-23T23:18:53.930Z,68.43
2023-01-23T23:21:24.041Z,77.63
2023-01-23T23:23:52.705Z,76.82
2023-01-23T23:26:23.660Z,74.38
2023-01-23T23:28:52.696Z,96.38
2023-01-23T23:31:20.630Z,88.70
2023-01-23T23:33:48.434Z,92.50
2023-01-23T23:36:16.357Z,90.88
2023-01-23T23:38:44.245Z,86.43
2023-01-23T23:41:13.648Z,85.72
2023-01-23T23:43:41.499Z,87.93
2023-01-23T23:46:09.636Z,85.15
2023-01-23T23:48:38.153Z,78.63
2023-01-23T23:51:07.892Z,97.07
2023-01-23T23:53:36.535Z,107.00
2023-01-23T23:56:05.134Z,106.63
2023-01-23T23:58:35.196Z,105.75
